Airline Pilot Forums

Airline Pilot Forums was designed to be a community where working airline pilots can share ideas and information about the aviation field. In the forum you will find information about major and regional airline carriers, career training, interview and job seeker help, finance, and living the airline pilot lifestyle.




Tweetdrvr
09-18-2018, 02:18 PM
KSAT 12 reporting a T-6 down near Rolling Oaks Mall. East of Loop 1604, south of Nacogdoches Rd. Both pilots reported by witnesses at scene to be up and walking around. Crash happened @ 15:30 CDT

https://www.ksat.com/news/air-force-trainer-plane-crashes-near-rolling-oaks-mall

5pm news just showed video from news chopper above scene just after incident. Pilots up, walking and talking to first responders. Aircraft in 3 large piecess. Wings seperated next to upright tail section. Body of fuselage/main cockpit area on its side approx 100 feet away.

Glad all appear to be ok.

https://www.ksat.com/news/sky-12-images-air-force-trainer-plane-crash-near-rolling-oaks-mall


Data at: 2217 UTC 18 Sep 2018
KRND 182156Z AUTO 14006KT 10SM FEW050 32/21 A2992 RMK AO2 SLP123 T03210206 $
KRND 182056Z AUTO 14005KT 10SM CLR 32/21 A2993 RMK AO2 SLP126 T03190211 57027 $
KRND 181956Z AUTO 17006KT 10SM FEW039 FEW180 32/20 A2996 RMK AO2 SLP137 T03200202 $

Approx 5 mile point in the pattern on base turn for a pattern straight in.